createdAt,value
2018-11-22T12:16:03.324Z,67.10
2018-11-22T12:18:36.604Z,67.50
2018-11-22T12:21:00.891Z,67.70
2018-11-22T12:23:29.714Z,66.70
2018-11-22T12:25:58.554Z,66.90
2018-11-22T12:28:27.352Z,66.70
2018-11-22T12:30:56.125Z,66.60
2018-11-22T12:33:44.385Z,66.60
2018-11-22T12:36:18.681Z,66.70
2018-11-22T12:38:47.571Z,66.30
2018-11-22T12:41:16.407Z,65.80
2018-11-22T12:43:45.209Z,66.30
2018-11-22T12:46:14.052Z,66.00
2018-11-22T12:48:43.296Z,65.90
2018-11-22T12:51:12.146Z,65.60
2018-11-22T12:53:40.946Z,66.20
2018-11-22T12:56:09.726Z,65.90
2018-11-22T12:58:38.557Z,66.00
2018-11-22T13:01:07.365Z,66.20
2018-11-22T13:03:36.159Z,66.30
2018-11-22T13:06:05.679Z,66.50
2018-11-22T13:08:34.473Z,66.40
2018-11-22T13:11:03.296Z,66.50
2018-11-22T13:13:32.071Z,66.50
2018-11-22T13:16:00.895Z,67.30
2018-11-22T13:18:29.723Z,67.20
2018-11-22T13:20:58.530Z,67.20
2018-11-22T13:24:13.615Z,66.60
2018-11-22T13:26:42.481Z,67.00
2018-11-22T13:29:11.286Z,67.00
2018-11-22T13:31:40.050Z,67.00
2018-11-22T13:34:08.849Z,67.40
2018-11-22T13:36:37.618Z,67.00
2018-11-22T13:39:08.999Z,67.40
2018-11-22T13:41:37.796Z,66.70
2018-11-22T13:44:06.657Z,66.10
2018-11-22T13:46:35.469Z,66.60
2018-11-22T13:49:04.750Z,66.50
2018-11-22T13:51:33.521Z,66.90
2018-11-22T13:54:02.410Z,66.40
2018-11-22T13:56:31.216Z,66.20
2018-11-22T13:58:59.994Z,66.40
2018-11-22T14:01:28.777Z,65.90
2018-11-22T14:03:57.628Z,66.60
2018-11-22T14:06:26.445Z,66.20
2018-11-22T14:08:55.241Z,66.60
2018-11-22T14:11:24.047Z,66.70
2018-11-22T14:13:52.841Z,66.50
2018-11-22T14:16:21.633Z,66.50
2018-11-22T14:18:50.425Z,66.60
2018-11-22T14:21:19.217Z,66.90
2018-11-22T14:23:48.108Z,66.10
2018-11-22T14:26:16.881Z,65.80
2018-11-22T14:28:45.687Z,65.50
2018-11-22T14:31:14.474Z,65.60
2018-11-22T14:33:43.270Z,65.60
2018-11-22T14:36:13.022Z,65.60
2018-11-22T14:38:40.822Z,65.80
2018-11-22T14:41:09.611Z,66.10
2018-11-22T14:43:38.410Z,65.60
2018-11-22T14:46:07.186Z,65.70
2018-11-22T14:48:35.973Z,65.70
2018-11-22T14:52:08.978Z,66.20
2018-11-22T14:54:37.754Z,65.50
2018-11-22T14:57:06.567Z,65.50
2018-11-22T14:59:35.385Z,65.30
2018-11-22T15:02:04.184Z,65.80
2018-11-22T15:04:32.942Z,66.30
2018-11-22T15:07:01.742Z,65.80
2018-11-22T15:09:30.621Z,66.30
2018-11-22T15:11:59.393Z,67.30
2018-11-22T15:14:28.249Z,67.10
2018-11-22T15:16:57.059Z,67.20
2018-11-22T15:19:25.858Z,68.00
2018-11-22T15:21:54.694Z,67.80
2018-11-22T15:24:23.501Z,68.50
2018-11-22T15:26:52.478Z,67.70
2018-11-22T15:29:21.352Z,68.40
2018-11-22T15:31:50.118Z,68.00
2018-11-22T15:34:18.898Z,68.10
2018-11-22T15:36:47.711Z,68.60
2018-11-22T15:39:16.504Z,68.70
2018-11-22T15:41:45.361Z,68.80
2018-11-22T15:44:14.141Z,68.90
2018-11-22T15:46:42.965Z,68.80
2018-11-22T15:49:11.813Z,69.00
2018-11-22T15:51:40.641Z,69.40
2018-11-22T15:54:09.740Z,69.50
2018-11-22T15:56:38.578Z,69.60
2018-11-22T15:59:07.481Z,69.70
2018-11-22T16:01:36.286Z,70.20
2018-11-22T16:04:05.070Z,70.00
2018-11-22T16:06:33.853Z,70.20
2018-11-22T16:09:02.675Z,70.50
2018-11-22T16:11:31.517Z,71.90
2018-11-22T16:14:00.349Z,71.40
2018-11-22T16:16:29.154Z,71.70
2018-11-22T16:18:57.925Z,72.00
2018-11-22T16:21:26.705Z,72.10
2018-11-22T16:23:55.489Z,72.80
2018-11-22T16:26:24.311Z,73.10
2018-11-22T16:28:53.106Z,73.00
2018-11-22T16:31:21.933Z,73.30
2018-11-22T16:33:50.724Z,73.90
2018-11-22T16:36:19.502Z,74.10
2018-11-22T16:38:48.278Z,74.10
2018-11-22T16:41:17.093Z,73.80
2018-11-22T16:43:45.970Z,73.70
2018-11-22T16:46:14.813Z,73.80
2018-11-22T16:48:43.600Z,73.80
2018-11-22T16:51:12.406Z,74.00
2018-11-22T16:53:41.204Z,74.00
2018-11-22T16:56:09.983Z,73.90
2018-11-22T16:58:38.761Z,74.00
2018-11-22T17:01:07.568Z,74.20
2018-11-22T17:03:36.332Z,74.40
2018-11-22T17:06:05.475Z,74.60
2018-11-22T17:08:34.263Z,74.70
2018-11-22T17:11:03.030Z,74.30
2018-11-22T17:13:31.849Z,74.50
2018-11-22T17:16:02.800Z,74.50
2018-11-22T17:18:31.714Z,74.70
2018-11-22T17:21:00.482Z,74.80
2018-11-22T17:23:29.286Z,74.90
2018-11-22T17:25:58.074Z,74.90
2018-11-22T17:28:26.906Z,74.90
2018-11-22T17:30:55.685Z,74.60
2018-11-22T17:33:24.465Z,74.50
2018-11-22T17:35:56.200Z,74.70
2018-11-22T17:38:27.048Z,74.80
2018-11-22T17:40:56.249Z,74.70
2018-11-22T17:43:25.067Z,74.90
2018-11-22T17:45:53.890Z,75.30
2018-11-22T17:48:22.677Z,75.00
2018-11-22T17:50:51.453Z,76.30
2018-11-22T17:53:20.250Z,75.60
2018-11-22T17:55:49.007Z,76.10
2018-11-22T17:58:17.921Z,76.30
2018-11-22T18:00:49.085Z,76.30
2018-11-22T18:03:17.878Z,76.50
2018-11-22T18:05:46.949Z,76.30
2018-11-22T18:08:15.886Z,76.60
2018-11-22T18:10:44.880Z,76.70
2018-11-22T18:13:13.649Z,76.80
2018-11-22T18:15:55.040Z,76.60
2018-11-22T18:18:24.081Z,76.70
2018-11-22T18:20:52.882Z,76.60
2018-11-22T18:23:21.750Z,76.60
2018-11-22T18:25:50.749Z,76.70
2018-11-22T18:28:19.690Z,76.60
2018-11-22T18:30:48.504Z,76.10
2018-11-22T18:33:17.256Z,76.60
2018-11-22T18:35:46.121Z,76.90
2018-11-22T18:38:14.941Z,77.30
2018-11-22T18:40:44.508Z,77.30
2018-11-22T18:43:13.285Z,77.30
2018-11-22T18:45:43.510Z,77.80
2018-11-22T18:48:13.838Z,77.90
2018-11-22T18:50:42.932Z,78.10
2018-11-22T18:53:11.956Z,77.80
2018-11-22T18:55:40.740Z,77.90
2018-11-22T18:58:09.522Z,78.10
2018-11-22T19:00:40.733Z,78.30
2018-11-22T19:03:13.266Z,78.80
2018-11-22T19:05:42.033Z,79.10
2018-11-22T19:08:10.802Z,79.40
2018-11-22T19:10:40.590Z,79.50
2018-11-22T19:13:10.178Z,79.50
2018-11-22T19:15:41.349Z,80.30
2018-11-22T19:18:10.875Z,79.70
2018-11-22T19:20:40.923Z,79.60
2018-11-22T19:23:10.826Z,79.70
2018-11-22T19:25:39.584Z,79.70
2018-11-22T19:28:09.078Z,79.80
2018-11-22T19:30:39.223Z,80.50
2018-11-22T19:33:10.489Z,80.50
2018-11-22T19:35:41.073Z,80.40
2018-11-22T19:38:09.854Z,80.30
2018-11-22T19:40:39.656Z,80.40
2018-11-22T19:43:09.293Z,81.20
2018-11-22T19:45:39.629Z,80.80
2018-11-22T19:48:08.701Z,80.80
2018-11-22T19:50:37.468Z,80.40
2018-11-22T19:53:07.849Z,80.70
2018-11-22T19:55:37.324Z,80.90
2018-11-22T19:58:07.449Z,81.00
2018-11-22T20:00:36.267Z,81.10
2018-11-22T20:03:05.985Z,81.00
2018-11-22T20:05:36.269Z,81.10
2018-11-22T20:08:06.789Z,81.20
2018-11-22T20:10:37.137Z,81.40
2018-11-22T20:13:05.915Z,81.70
2018-11-22T20:15:35.030Z,81.70
2018-11-22T20:18:05.253Z,81.80
2018-11-22T20:20:34.037Z,81.60
2018-11-22T20:23:02.802Z,81.70
2018-11-22T20:25:31.617Z,81.90
2018-11-22T20:28:00.674Z,82.00
2018-11-22T20:30:31.593Z,82.40
2018-11-22T20:33:00.541Z,82.20
2018-11-22T20:35:30.104Z,82.10
2018-11-22T20:37:58.860Z,82.00
2018-11-22T20:40:28.134Z,82.40
2018-11-22T20:42:57.317Z,82.30
2018-11-22T20:45:26.925Z,82.50
2018-11-22T20:47:57.340Z,82.50
2018-11-22T20:50:27.076Z,82.50
2018-11-22T20:52:55.962Z,82.60
2018-11-22T20:55:26.172Z,82.80
2018-11-22T20:57:57.208Z,83.10
2018-11-22T21:00:27.334Z,83.20
2018-11-22T21:02:56.141Z,82.90
2018-11-22T21:05:25.537Z,82.70
2018-11-22T21:07:54.310Z,82.90
2018-11-22T21:10:25.350Z,83.00
2018-11-22T21:12:54.111Z,83.40
2018-11-22T21:15:25.174Z,83.80
2018-11-22T21:17:55.813Z,83.60
2018-11-22T21:20:26.253Z,83.50
2018-11-22T21:22:55.025Z,83.50
2018-11-22T21:25:23.875Z,83.20
2018-11-22T21:27:52.796Z,83.40
2018-11-22T21:30:24.405Z,83.30
2018-11-22T21:32:53.493Z,83.30
2018-11-22T21:35:22.396Z,83.40
2018-11-22T21:37:52.256Z,84.20
2018-11-22T21:40:21.788Z,83.50
2018-11-22T21:42:50.619Z,83.60
2018-11-22T21:45:21.628Z,83.60
2018-11-22T21:47:50.394Z,83.50
2018-11-22T21:50:20.514Z,83.60
2018-11-22T21:52:49.321Z,83.70
2018-11-22T21:55:21.562Z,83.90
2018-11-22T21:57:51.092Z,83.90
2018-11-22T22:00:24.405Z,83.40
2018-11-22T22:02:55.443Z,83.30
2018-11-22T22:05:24.204Z,83.60
2018-11-22T22:07:52.953Z,83.50
2018-11-22T22:10:21.730Z,83.50
2018-11-22T22:12:50.541Z,83.70
2018-11-22T22:15:20.984Z,83.90
2018-11-22T22:17:49.874Z,83.90
2018-11-22T22:20:20.113Z,83.70
2018-11-22T22:22:48.901Z,84.20
2018-11-22T22:25:18.822Z,84.00
2018-11-22T22:27:48.112Z,83.90
2018-11-22T22:30:20.292Z,84.10
2018-11-22T22:32:49.970Z,84.70
2018-11-22T22:35:18.765Z,85.80
2018-11-22T22:37:47.549Z,85.50
2018-11-22T22:40:18.594Z,85.50
2018-11-22T22:42:48.153Z,85.40
2018-11-22T22:45:17.823Z,85.20
2018-11-22T22:47:47.313Z,85.50
2018-11-22T22:50:17.460Z,85.60
2018-11-22T22:52:46.937Z,85.40
2018-11-22T22:55:15.761Z,85.50
2018-11-22T22:57:44.845Z,85.50
2018-11-22T23:00:21.593Z,85.20
2018-11-22T23:02:51.986Z,85.00
2018-11-22T23:05:21.438Z,85.00
2018-11-22T23:07:50.384Z,84.80
2018-11-22T23:10:19.729Z,84.80
2018-11-22T23:12:48.542Z,85.00
2018-11-22T23:15:18.214Z,84.80
2018-11-22T23:17:47.026Z,85.00
2018-11-22T23:20:18.779Z,84.90
2018-11-22T23:22:47.971Z,85.20
2018-11-22T23:25:17.678Z,85.40
2018-11-22T23:27:46.479Z,85.30
2018-11-22T23:30:24.689Z,85.50
2018-11-22T23:32:54.686Z,85.30
2018-11-22T23:35:23.674Z,85.30
2018-11-22T23:37:52.709Z,85.50
2018-11-22T23:40:22.901Z,85.70
2018-11-22T23:42:51.793Z,85.70
2018-11-22T23:45:21.801Z,85.90
2018-11-22T23:47:50.918Z,85.90
2018-11-22T23:50:21.011Z,85.70
2018-11-22T23:52:50.955Z,86.00
2018-11-22T23:55:19.717Z,86.00
2018-11-22T23:57:48.565Z,85.90
